SWA3931 KLAS-KBUR
Flight info
| Callsign | SWA3931 |
|---|---|
| Flight time | 0h 51m |
| Altitude | 24000 |
| Route | RADYR2 SLVRR KREME JANNY5 |
| Aircraft | B737/M-SADE2E3GIJ4RWZ/LB1D1 |
Departure
| Time | 2026-05-05 16:48 |
|---|---|
| Airport | Harry Reid International Airport (KLAS) |
Arrival
| Time | 2026-05-05 17:40 |
|---|---|
| Airport | Hollywood Burbank/Bob Hope Airport (KBUR) |
| Time | Latitude | Longitude | Altitude | Speed | Heading |
|---|---|---|---|---|---|
| 2026-05-05 16:12 | 36.08137 | -115.14787 | 2115 ft | 0 kts | 62° |
| 2026-05-05 16:32 | 36.08127 | -115.14810 | 2116 ft | 4 kts | 62° |
| 2026-05-05 16:32 | 36.08114 | -115.14839 | 2113 ft | 4 kts | 62° |
| 2026-05-05 16:33 | 36.08106 | -115.14859 | 2112 ft | 0 kts | 62° |
| 2026-05-05 16:36 | 36.08107 | -115.14858 | 2111 ft | 1 kts | 50° |
| 2026-05-05 16:36 | 36.08117 | -115.14862 | 2112 ft | 4 kts | 332° |
| 2026-05-05 16:36 | 36.08112 | -115.14899 | 2113 ft | 5 kts | 238° |
| 2026-05-05 16:36 | 36.08080 | -115.14908 | 2114 ft | 5 kts | 169° |
| 2026-05-05 16:37 | 36.08050 | -115.14892 | 2114 ft | 5 kts | 155° |
| 2026-05-05 16:37 | 36.08021 | -115.14875 | 2114 ft | 5 kts | 155° |
| 2026-05-05 16:37 | 36.07991 | -115.14858 | 2114 ft | 5 kts | 155° |
| 2026-05-05 16:37 | 36.07963 | -115.14842 | 2115 ft | 4 kts | 155° |
| 2026-05-05 16:38 | 36.07945 | -115.14832 | 2115 ft | 0 kts | 155° |
| 2026-05-05 16:40 | 36.07944 | -115.14831 | 2115 ft | 1 kts | 155° |
| 2026-05-05 16:40 | 36.07929 | -115.14824 | 2115 ft | 4 kts | 160° |
| 2026-05-05 16:40 | 36.07896 | -115.14814 | 2116 ft | 5 kts | 167° |
| 2026-05-05 16:40 | 36.07862 | -115.14780 | 2116 ft | 10 kts | 117° |
| 2026-05-05 16:41 | 36.07847 | -115.14640 | 2108 ft | 21 kts | 95° |
| 2026-05-05 16:41 | 36.07836 | -115.14457 | 2104 ft | 21 kts | 94° |
| 2026-05-05 16:41 | 36.07826 | -115.14279 | 2098 ft | 21 kts | 92° |
| 2026-05-05 16:41 | 36.07827 | -115.14105 | 2093 ft | 20 kts | 92° |
| 2026-05-05 16:42 | 36.07825 | -115.14057 | 2092 ft | 20 kts | 94° |
| 2026-05-05 16:42 | 36.07825 | -115.14056 | 2092 ft | 20 kts | 94° |
| 2026-05-05 16:42 | 36.07827 | -115.13910 | 2093 ft | 17 kts | 90° |
| 2026-05-05 16:43 | 36.07827 | -115.13764 | 2089 ft | 17 kts | 90° |
| 2026-05-05 16:43 | 36.07827 | -115.13609 | 2085 ft | 20 kts | 89° |
| 2026-05-05 16:43 | 36.07827 | -115.13435 | 2083 ft | 20 kts | 90° |
| 2026-05-05 16:43 | 36.07826 | -115.13249 | 2073 ft | 24 kts | 90° |
| 2026-05-05 16:44 | 36.07827 | -115.13018 | 2064 ft | 29 kts | 89° |
| 2026-05-05 16:44 | 36.07827 | -115.12762 | 2053 ft | 31 kts | 90° |
| 2026-05-05 16:44 | 36.07827 | -115.12495 | 2049 ft | 29 kts | 90° |
| 2026-05-05 16:44 | 36.07827 | -115.12338 | 2049 ft | 12 kts | 92° |
| 2026-05-05 16:45 | 36.07807 | -115.12234 | 2044 ft | 13 kts | 124° |
| 2026-05-05 16:45 | 36.07752 | -115.12152 | 2039 ft | 4 kts | 130° |
| 2026-05-05 16:45 | 36.07749 | -115.12147 | 2039 ft | 0 kts | 130° |
| 2026-05-05 16:47 | 36.07734 | -115.12129 | 2039 ft | 10 kts | 142° |
| 2026-05-05 16:47 | 36.07667 | -115.12117 | 2040 ft | 10 kts | 194° |
| 2026-05-05 16:47 | 36.07640 | -115.12203 | 2043 ft | 15 kts | 270° |
| 2026-05-05 16:47 | 36.07639 | -115.12598 | 2053 ft | 83 kts | 270° |
| 2026-05-05 16:48 | 36.07635 | -115.13599 | 2086 ft | 147 kts | 268° |
| 2026-05-05 16:48 | 36.07668 | -115.15006 | 2472 ft | 171 kts | 269° |
| 2026-05-05 16:48 | 36.07689 | -115.16452 | 3565 ft | 156 kts | 269° |
| 2026-05-05 16:48 | 36.07695 | -115.17807 | 4341 ft | 165 kts | 267° |
| 2026-05-05 16:49 | 36.07701 | -115.19351 | 4706 ft | 197 kts | 267° |
| 2026-05-05 16:49 | 36.07578 | -115.21079 | 5243 ft | 206 kts | 257° |
| 2026-05-05 16:49 | 36.07319 | -115.22842 | 5985 ft | 210 kts | 257° |
| 2026-05-05 16:49 | 36.06901 | -115.24569 | 6750 ft | 211 kts | 235° |
| 2026-05-05 16:50 | 36.05982 | -115.25945 | 7522 ft | 206 kts | 220° |
| 2026-05-05 16:50 | 36.04720 | -115.26891 | 7966 ft | 223 kts | 201° |
| 2026-05-05 16:50 | 36.03138 | -115.27638 | 8021 ft | 265 kts | 199° |
| 2026-05-05 16:50 | 36.01371 | -115.28437 | 8124 ft | 270 kts | 199° |
| 2026-05-05 16:51 | 35.99597 | -115.29239 | 8821 ft | 273 kts | 199° |
| 2026-05-05 16:51 | 35.97791 | -115.29877 | 9999 ft | 269 kts | 191° |
| 2026-05-05 16:51 | 35.95939 | -115.30336 | 10952 ft | 275 kts | 189° |
| 2026-05-05 16:51 | 35.94040 | -115.30769 | 11888 ft | 278 kts | 189° |
| 2026-05-05 16:52 | 35.92121 | -115.31207 | 12936 ft | 281 kts | 189° |
| 2026-05-05 16:52 | 35.90206 | -115.31653 | 13925 ft | 287 kts | 190° |
| 2026-05-05 16:52 | 35.88224 | -115.32122 | 14831 ft | 291 kts | 189° |
| 2026-05-05 16:52 | 35.86220 | -115.32604 | 15773 ft | 297 kts | 190° |
| 2026-05-05 16:53 | 35.84127 | -115.33111 | 16197 ft | 321 kts | 191° |
| 2026-05-05 16:53 | 35.81831 | -115.33670 | 16419 ft | 349 kts | 191° |
| 2026-05-05 16:53 | 35.79363 | -115.34272 | 16800 ft | 370 kts | 191° |
| 2026-05-05 16:53 | 35.76809 | -115.34897 | 17626 ft | 376 kts | 191° |
| 2026-05-05 16:54 | 35.74249 | -115.35524 | 18469 ft | 381 kts | 192° |
| 2026-05-05 16:54 | 35.71638 | -115.36164 | 19319 ft | 383 kts | 192° |
| 2026-05-05 16:54 | 35.69019 | -115.36805 | 20200 ft | 385 kts | 192° |
| 2026-05-05 16:54 | 35.66379 | -115.37450 | 21003 ft | 389 kts | 192° |
| 2026-05-05 16:55 | 35.63706 | -115.38103 | 21769 ft | 393 kts | 192° |
| 2026-05-05 16:55 | 35.61123 | -115.39207 | 22533 ft | 396 kts | 209° |
| 2026-05-05 16:55 | 35.58927 | -115.41262 | 23319 ft | 398 kts | 225° |
| 2026-05-05 16:55 | 35.57021 | -115.43767 | 23840 ft | 402 kts | 227° |
| 2026-05-05 16:56 | 35.55164 | -115.46326 | 23924 ft | 402 kts | 228° |
| 2026-05-05 16:56 | 35.53314 | -115.48901 | 23958 ft | 403 kts | 228° |
| 2026-05-05 16:56 | 35.51451 | -115.51475 | 23952 ft | 402 kts | 228° |
| 2026-05-05 16:56 | 35.49582 | -115.54030 | 23957 ft | 402 kts | 227° |
| 2026-05-05 16:57 | 35.47704 | -115.56574 | 23969 ft | 401 kts | 227° |
| 2026-05-05 16:57 | 35.45843 | -115.59084 | 23964 ft | 402 kts | 227° |
| 2026-05-05 16:57 | 35.43962 | -115.61612 | 23969 ft | 402 kts | 227° |
| 2026-05-05 16:57 | 35.42073 | -115.64147 | 23970 ft | 402 kts | 227° |
| 2026-05-05 16:58 | 35.40187 | -115.66678 | 23967 ft | 402 kts | 227° |
| 2026-05-05 16:58 | 35.38301 | -115.69206 | 23970 ft | 402 kts | 227° |
| 2026-05-05 16:58 | 35.36419 | -115.71728 | 23958 ft | 402 kts | 227° |
| 2026-05-05 16:58 | 35.34526 | -115.74257 | 23963 ft | 401 kts | 227° |
| 2026-05-05 16:59 | 35.32550 | -115.76668 | 23948 ft | 401 kts | 223° |
| 2026-05-05 16:59 | 35.30492 | -115.78984 | 23967 ft | 401 kts | 222° |
| 2026-05-05 16:59 | 35.28434 | -115.81238 | 23957 ft | 400 kts | 222° |
| 2026-05-05 16:59 | 35.26362 | -115.83503 | 23959 ft | 399 kts | 222° |
| 2026-05-05 17:00 | 35.24287 | -115.85783 | 23954 ft | 399 kts | 222° |
| 2026-05-05 17:00 | 35.22233 | -115.88057 | 23959 ft | 398 kts | 222° |
| 2026-05-05 17:00 | 35.20169 | -115.90353 | 23966 ft | 407 kts | 222° |
| 2026-05-05 17:00 | 35.18036 | -115.92731 | 23966 ft | 421 kts | 222° |
| 2026-05-05 17:01 | 35.15846 | -115.95176 | 23976 ft | 432 kts | 223° |
| 2026-05-05 17:01 | 35.13601 | -115.97681 | 23962 ft | 441 kts | 222° |
| 2026-05-05 17:01 | 35.11315 | -116.00230 | 23958 ft | 445 kts | 222° |
| 2026-05-05 17:01 | 35.09035 | -116.02771 | 23935 ft | 442 kts | 222° |
| 2026-05-05 17:02 | 35.06766 | -116.05297 | 23934 ft | 439 kts | 222° |
| 2026-05-05 17:02 | 35.04536 | -116.07777 | 23933 ft | 438 kts | 222° |
| 2026-05-05 17:02 | 35.02286 | -116.10278 | 23938 ft | 438 kts | 222° |
| 2026-05-05 17:02 | 35.00025 | -116.12790 | 23943 ft | 439 kts | 222° |
| 2026-05-05 17:03 | 34.97767 | -116.15297 | 23937 ft | 438 kts | 222° |
| 2026-05-05 17:03 | 34.95511 | -116.17798 | 23930 ft | 438 kts | 222° |
| 2026-05-05 17:03 | 34.93256 | -116.20301 | 23930 ft | 438 kts | 223° |
| 2026-05-05 17:03 | 34.91299 | -116.23132 | 23921 ft | 438 kts | 239° |
| 2026-05-05 17:04 | 34.89970 | -116.26424 | 23941 ft | 438 kts | 245° |
| 2026-05-05 17:04 | 34.88695 | -116.29845 | 23933 ft | 438 kts | 245° |
| 2026-05-05 17:04 | 34.87434 | -116.33217 | 23925 ft | 438 kts | 245° |
| 2026-05-05 17:04 | 34.86156 | -116.36585 | 23932 ft | 438 kts | 245° |
| 2026-05-05 17:05 | 34.84879 | -116.39905 | 23931 ft | 438 kts | 244° |
| 2026-05-05 17:05 | 34.83589 | -116.43229 | 23918 ft | 425 kts | 244° |
| 2026-05-05 17:05 | 34.82352 | -116.46405 | 23914 ft | 405 kts | 244° |
| 2026-05-05 17:05 | 34.81174 | -116.49428 | 23920 ft | 383 kts | 244° |
| 2026-05-05 17:06 | 34.80062 | -116.52277 | 23922 ft | 364 kts | 244° |
| 2026-05-05 17:06 | 34.79016 | -116.54999 | 23925 ft | 346 kts | 248° |
| 2026-05-05 17:06 | 34.78449 | -116.57766 | 23953 ft | 329 kts | 263° |
| 2026-05-05 17:06 | 34.78212 | -116.60474 | 23942 ft | 314 kts | 263° |
| 2026-05-05 17:07 | 34.78001 | -116.63061 | 23938 ft | 300 kts | 263° |
| 2026-05-05 17:07 | 34.77781 | -116.65541 | 23949 ft | 291 kts | 262° |
| 2026-05-05 17:07 | 34.77629 | -116.67167 | 23968 ft | 297 kts | 263° |
| 2026-05-05 17:07 | 34.77290 | -116.70688 | 24007 ft | 329 kts | 263° |
| 2026-05-05 17:08 | 34.77016 | -116.73504 | 23987 ft | 347 kts | 262° |
| 2026-05-05 17:08 | 34.76826 | -116.75463 | 23978 ft | 342 kts | 263° |
| 2026-05-05 17:08 | 34.76551 | -116.78291 | 23956 ft | 330 kts | 263° |
| 2026-05-05 17:08 | 34.76287 | -116.80997 | 23949 ft | 315 kts | 263° |
| 2026-05-05 17:09 | 34.76033 | -116.83587 | 23948 ft | 300 kts | 262° |
| 2026-05-05 17:09 | 34.75794 | -116.86017 | 23942 ft | 287 kts | 263° |
| 2026-05-05 17:09 | 34.75557 | -116.88394 | 23952 ft | 272 kts | 262° |
| 2026-05-05 17:09 | 34.75335 | -116.90597 | 23929 ft | 260 kts | 263° |
| 2026-05-05 17:10 | 34.75118 | -116.92740 | 23943 ft | 253 kts | 263° |
| 2026-05-05 17:10 | 34.74903 | -116.94864 | 23952 ft | 257 kts | 263° |
| 2026-05-05 17:10 | 34.74680 | -116.97060 | 23834 ft | 266 kts | 263° |
| 2026-05-05 17:10 | 34.74444 | -116.99384 | 23110 ft | 285 kts | 263° |
| 2026-05-05 17:11 | 34.74196 | -117.01823 | 22042 ft | 299 kts | 263° |
| 2026-05-05 17:11 | 34.73933 | -117.04406 | 20791 ft | 318 kts | 263° |
| 2026-05-05 17:11 | 34.73652 | -117.07154 | 19603 ft | 333 kts | 263° |
| 2026-05-05 17:11 | 34.73370 | -117.09921 | 19268 ft | 327 kts | 263° |
| 2026-05-05 17:12 | 34.73083 | -117.12724 | 19060 ft | 348 kts | 263° |
| 2026-05-05 17:12 | 34.72775 | -117.15726 | 18817 ft | 365 kts | 263° |
| 2026-05-05 17:12 | 34.72459 | -117.18798 | 18648 ft | 366 kts | 263° |
| 2026-05-05 17:12 | 34.72143 | -117.21862 | 18441 ft | 364 kts | 263° |
| 2026-05-05 17:13 | 34.71827 | -117.24918 | 18230 ft | 365 kts | 263° |
| 2026-05-05 17:13 | 34.71506 | -117.28015 | 18011 ft | 369 kts | 263° |
| 2026-05-05 17:13 | 34.71186 | -117.31087 | 17778 ft | 362 kts | 263° |
| 2026-05-05 17:13 | 34.70873 | -117.34096 | 17571 ft | 357 kts | 263° |
| 2026-05-05 17:14 | 34.70561 | -117.37086 | 17364 ft | 356 kts | 263° |
| 2026-05-05 17:14 | 34.70250 | -117.40064 | 17149 ft | 355 kts | 263° |
| 2026-05-05 17:14 | 34.69937 | -117.43045 | 16940 ft | 355 kts | 263° |
| 2026-05-05 17:14 | 34.69624 | -117.46019 | 16730 ft | 354 kts | 263° |
| 2026-05-05 17:15 | 34.69309 | -117.48998 | 16519 ft | 355 kts | 263° |
| 2026-05-05 17:15 | 34.68992 | -117.51974 | 16314 ft | 355 kts | 263° |
| 2026-05-05 17:15 | 34.68677 | -117.54946 | 16107 ft | 355 kts | 263° |
| 2026-05-05 17:15 | 34.68364 | -117.57880 | 15900 ft | 355 kts | 263° |
| 2026-05-05 17:16 | 34.68045 | -117.60864 | 15683 ft | 355 kts | 263° |
| 2026-05-05 17:16 | 34.67727 | -117.63838 | 15480 ft | 354 kts | 263° |
| 2026-05-05 17:16 | 34.67412 | -117.66808 | 15266 ft | 353 kts | 263° |
| 2026-05-05 17:16 | 34.67100 | -117.69760 | 15062 ft | 352 kts | 263° |
| 2026-05-05 17:17 | 34.66788 | -117.72701 | 14840 ft | 350 kts | 263° |
| 2026-05-05 17:17 | 34.66477 | -117.75626 | 14633 ft | 349 kts | 264° |
| 2026-05-05 17:17 | 34.66167 | -117.78545 | 14454 ft | 346 kts | 263° |
| 2026-05-05 17:17 | 34.65860 | -117.81418 | 14268 ft | 341 kts | 263° |
| 2026-05-05 17:18 | 34.65555 | -117.84266 | 14087 ft | 341 kts | 263° |
| 2026-05-05 17:18 | 34.65245 | -117.87149 | 13853 ft | 345 kts | 263° |
| 2026-05-05 17:18 | 34.64930 | -117.90042 | 13483 ft | 346 kts | 263° |
| 2026-05-05 17:18 | 34.64614 | -117.92938 | 13131 ft | 343 kts | 263° |
| 2026-05-05 17:19 | 34.64305 | -117.95756 | 12793 ft | 337 kts | 263° |
| 2026-05-05 17:19 | 34.63999 | -117.98558 | 12455 ft | 331 kts | 263° |
| 2026-05-05 17:19 | 34.63696 | -118.01323 | 12127 ft | 328 kts | 264° |
| 2026-05-05 17:19 | 34.63395 | -118.04056 | 11809 ft | 326 kts | 263° |
| 2026-05-05 17:20 | 34.63084 | -118.06771 | 11493 ft | 323 kts | 262° |
| 2026-05-05 17:20 | 34.62584 | -118.09443 | 11166 ft | 325 kts | 258° |
| 2026-05-05 17:20 | 34.61975 | -118.12085 | 10851 ft | 323 kts | 255° |
| 2026-05-05 17:20 | 34.61363 | -118.14664 | 10523 ft | 314 kts | 256° |
| 2026-05-05 17:21 | 34.60773 | -118.17177 | 10226 ft | 305 kts | 257° |
| 2026-05-05 17:21 | 34.60211 | -118.19624 | 9925 ft | 297 kts | 257° |
| 2026-05-05 17:21 | 34.59678 | -118.21971 | 9912 ft | 279 kts | 257° |
| 2026-05-05 17:22 | 34.58667 | -118.26483 | 9087 ft | 275 kts | 257° |
| 2026-05-05 17:22 | 34.58174 | -118.28693 | 8789 ft | 271 kts | 257° |
| 2026-05-05 17:22 | 34.57685 | -118.30876 | 8511 ft | 266 kts | 256° |
| 2026-05-05 17:22 | 34.57201 | -118.33036 | 8243 ft | 262 kts | 257° |
| 2026-05-05 17:23 | 34.56726 | -118.35155 | 8034 ft | 260 kts | 256° |
| 2026-05-05 17:23 | 34.56251 | -118.37278 | 8000 ft | 262 kts | 258° |
| 2026-05-05 17:23 | 34.55764 | -118.39446 | 7965 ft | 267 kts | 258° |
| 2026-05-05 17:23 | 34.55271 | -118.41628 | 7952 ft | 268 kts | 256° |
| 2026-05-05 17:24 | 34.54345 | -118.43580 | 7921 ft | 274 kts | 230° |
| 2026-05-05 17:24 | 34.52814 | -118.45006 | 7735 ft | 282 kts | 216° |
| 2026-05-05 17:24 | 34.51166 | -118.46273 | 7541 ft | 278 kts | 215° |
| 2026-05-05 17:24 | 34.49549 | -118.47522 | 7357 ft | 273 kts | 218° |
| 2026-05-05 17:25 | 34.47977 | -118.48794 | 7187 ft | 271 kts | 216° |
| 2026-05-05 17:25 | 34.46939 | -118.49618 | 7048 ft | 269 kts | 216° |
| 2026-05-05 17:25 | 34.44818 | -118.51208 | 6858 ft | 267 kts | 216° |
| 2026-05-05 17:25 | 34.43249 | -118.52408 | 6701 ft | 267 kts | 219° |
| 2026-05-05 17:26 | 34.41682 | -118.53639 | 6526 ft | 268 kts | 215° |
| 2026-05-05 17:26 | 34.40102 | -118.54852 | 6357 ft | 269 kts | 214° |
| 2026-05-05 17:26 | 34.38540 | -118.56053 | 6164 ft | 269 kts | 214° |
| 2026-05-05 17:26 | 34.36971 | -118.57264 | 6039 ft | 265 kts | 214° |
| 2026-05-05 17:27 | 34.35423 | -118.58498 | 5987 ft | 262 kts | 216° |
| 2026-05-05 17:27 | 34.33921 | -118.59735 | 5984 ft | 259 kts | 216° |
| 2026-05-05 17:27 | 34.32434 | -118.60964 | 6006 ft | 268 kts | 216° |
| 2026-05-05 17:27 | 34.30880 | -118.62256 | 6003 ft | 271 kts | 216° |
| 2026-05-05 17:28 | 34.29315 | -118.63537 | 5987 ft | 271 kts | 216° |
| 2026-05-05 17:28 | 34.27775 | -118.64819 | 5988 ft | 270 kts | 217° |
| 2026-05-05 17:28 | 34.26233 | -118.66116 | 5973 ft | 269 kts | 217° |
| 2026-05-05 17:28 | 34.24673 | -118.67364 | 5978 ft | 268 kts | 213° |
| 2026-05-05 17:29 | 34.23086 | -118.68544 | 5984 ft | 268 kts | 212° |
| 2026-05-05 17:29 | 34.21501 | -118.69736 | 5986 ft | 268 kts | 213° |
| 2026-05-05 17:29 | 34.19930 | -118.70954 | 5993 ft | 268 kts | 214° |
| 2026-05-05 17:29 | 34.18363 | -118.72183 | 5986 ft | 270 kts | 214° |
| 2026-05-05 17:30 | 34.16776 | -118.73416 | 5979 ft | 270 kts | 213° |
| 2026-05-05 17:30 | 34.15200 | -118.74662 | 5980 ft | 271 kts | 215° |
| 2026-05-05 17:30 | 34.13626 | -118.75925 | 5978 ft | 272 kts | 214° |
| 2026-05-05 17:30 | 34.12122 | -118.77292 | 5969 ft | 270 kts | 230° |
| 2026-05-05 17:31 | 34.11225 | -118.79208 | 5833 ft | 264 kts | 257° |
| 2026-05-05 17:31 | 34.11172 | -118.81392 | 5454 ft | 258 kts | 286° |
| 2026-05-05 17:31 | 34.11974 | -118.83252 | 5048 ft | 255 kts | 314° |
| 2026-05-05 17:31 | 34.13453 | -118.84408 | 4672 ft | 256 kts | 343° |
| 2026-05-05 17:32 | 34.15215 | -118.84654 | 4300 ft | 255 kts | 360° |
| 2026-05-05 17:32 | 34.16995 | -118.84615 | 4032 ft | 255 kts | 1° |
| 2026-05-05 17:32 | 34.18775 | -118.84477 | 3985 ft | 260 kts | 12° |
| 2026-05-05 17:32 | 34.20382 | -118.83518 | 3965 ft | 259 kts | 41° |
| 2026-05-05 17:33 | 34.21407 | -118.81776 | 3712 ft | 256 kts | 69° |
| 2026-05-05 17:33 | 34.21657 | -118.79638 | 3293 ft | 259 kts | 92° |
| 2026-05-05 17:33 | 34.21532 | -118.77475 | 3032 ft | 259 kts | 95° |
| 2026-05-05 17:33 | 34.21367 | -118.75294 | 2994 ft | 262 kts | 95° |
| 2026-05-05 17:34 | 34.21195 | -118.73099 | 2988 ft | 261 kts | 95° |
| 2026-05-05 17:34 | 34.21020 | -118.70921 | 3160 ft | 262 kts | 96° |
| 2026-05-05 17:34 | 34.20840 | -118.68720 | 3712 ft | 268 kts | 95° |
| 2026-05-05 17:34 | 34.20652 | -118.66490 | 3680 ft | 268 kts | 96° |
| 2026-05-05 17:35 | 34.20460 | -118.64305 | 3666 ft | 254 kts | 96° |
| 2026-05-05 17:35 | 34.20275 | -118.62248 | 3671 ft | 240 kts | 96° |
| 2026-05-05 17:35 | 34.20124 | -118.60296 | 3700 ft | 231 kts | 93° |
| 2026-05-05 17:35 | 34.20064 | -118.58368 | 3707 ft | 227 kts | 90° |
| 2026-05-05 17:36 | 34.20038 | -118.56465 | 3707 ft | 225 kts | 90° |
| 2026-05-05 17:36 | 34.20015 | -118.54567 | 3599 ft | 228 kts | 89° |
| 2026-05-05 17:36 | 34.19990 | -118.52627 | 3324 ft | 233 kts | 90° |
| 2026-05-05 17:36 | 34.19964 | -118.50734 | 3004 ft | 215 kts | 90° |
| 2026-05-05 17:37 | 34.19941 | -118.49008 | 2735 ft | 197 kts | 91° |
| 2026-05-05 17:37 | 34.19928 | -118.47937 | 2564 ft | 188 kts | 92° |
| 2026-05-05 17:37 | 34.19902 | -118.45918 | 2255 ft | 172 kts | 93° |
| 2026-05-05 17:37 | 34.19885 | -118.44545 | 2035 ft | 157 kts | 92° |
| 2026-05-05 17:38 | 34.19870 | -118.43331 | 1824 ft | 138 kts | 93° |
| 2026-05-05 17:38 | 34.19855 | -118.42197 | 1620 ft | 134 kts | 92° |
| 2026-05-05 17:38 | 34.19839 | -118.41089 | 1554 ft | 138 kts | 92° |
| 2026-05-05 17:38 | 34.19828 | -118.39942 | 1409 ft | 133 kts | 92° |
| 2026-05-05 17:39 | 34.19810 | -118.38838 | 1120 ft | 128 kts | 91° |
| 2026-05-05 17:39 | 34.19797 | -118.37751 | 911 ft | 131 kts | 90° |
| 2026-05-05 17:39 | 34.19789 | -118.36645 | 743 ft | 132 kts | 91° |
| 2026-05-05 17:39 | 34.19777 | -118.35735 | 711 ft | 60 kts | 91° |
| 2026-05-05 17:40 | 34.19771 | -118.35437 | 711 ft | 32 kts | 90° |
| 2026-05-05 17:40 | 34.19768 | -118.35198 | 705 ft | 19 kts | 95° |
| 2026-05-05 17:40 | 34.19758 | -118.35157 | 708 ft | 6 kts | 138° |
| 2026-05-05 17:40 | 34.19708 | -118.35153 | 705 ft | 7 kts | 182° |
| 2026-05-05 17:41 | 34.19706 | -118.35153 | 705 ft | 0 kts | 181° |
| 2026-05-05 17:41 | 34.19705 | -118.35153 | 705 ft | 1 kts | 181° |
| 2026-05-05 17:41 | 34.19696 | -118.35153 | 705 ft | 1 kts | 181° |
| 2026-05-05 17:41 | 34.19679 | -118.35153 | 705 ft | 0 kts | 180° |